Latest Weather Observations for Falls Creek

IDV60801

Issued at 10:12 am EST Friday 24 May 2024 (issued every 10 minutes, with the page automatically refreshed every 10 minutes)

About weather observations | Map of weather stations | Latest weather observations for VIC | Other Formats
Station Details ID: 083084 Name: FALLS CREEK Lat: -36.87 Lon: 147.28 Height: 1765.0 m
Data from the previous 72 hours. | See also: Recent months at Falls Creek
Date/Time
EST
Temp
°C
App
Temp
°C
Dew
Point
°C
Rel
Hum
%
Delta-T
°C
Wind Press
QNH
hPa
Press
MSL
hPa
Rain since
9am
mm
Dir  Spd
km/h
Gust
km/h
Spd
kts
Gust
kts
24/10:00am 4.7 -0.2 -0.7 68 2.3 SSE 15 20 8 11 1027.6 1027.4 0.0
24/09:30am 4.2 -1.2 -1.4 67 2.3 SSE 17 22 9 12 1027.4 1027.2 0.0
24/09:00am 3.6 -2.0 -3.0 62 2.6 SSE 17 20 9 11 1027.2 1027.1 0.0
24/08:30am 1.9 -3.9 -8.8 45 3.7 S 15 19 8 10 1027.1 1026.9 0.0
24/08:00am 1.7 -3.9 -11.7 36 4.2 S 13 17 7 9 1026.8 1026.6 0.0
24/07:30am 1.6 -4.5 -12.9 33 4.4 SSE 15 19 8 10 1026.7 1026.4 0.0
24/07:00am 2.9 -3.7 -14.7 26 5.2 S 17 20 9 11 1026.4 1026.2 0.0
24/06:30am 2.2 -4.4 -14.8 27 5.0 SSW 17 20 9 11 1026.2 1025.9 0.0
24/06:00am 2.4 -4.6 -16.1 24 5.2 SSW 19 22 10 12 1026.1 1025.8 0.0
24/05:30am 3.2 -4.1 -17.0 21 5.7 SW 20 24 11 13 1025.9 1025.7 0.0
24/05:00am 3.8 -3.8 -16.5 21 5.9 SW 22 28 12 15 1025.8 1025.6 0.0
24/04:30am 3.9 -4.6 -18.9 17 6.3 WSW 26 30 14 16 1025.7 1025.4 0.0
24/04:00am 3.0 -4.9 -14.6 26 5.3 WSW 24 26 13 14 1026.1 1025.8 0.0
24/03:30am 2.4 -4.1 -13.0 31 4.8 WSW 17 22 9 12 1026.2 1025.9 0.0
24/03:00am 2.2 -4.2 -11.3 36 4.3 W 17 20 9 11 1026.3 1026.1 0.0
24/02:30am 2.2 -4.2 -11.0 37 4.3 W 17 20 9 11 1026.3 1026.1 0.0
24/02:00am 2.2 -4.0 -9.4 42 3.9 W 17 20 9 11 1026.3 1026.1 0.0
24/01:30am 1.6 -4.7 -6.0 57 2.8 WNW 19 20 10 11 1026.3 1026.1 0.0
24/01:00am 1.5 -4.8 -5.8 58 2.7 WNW 19 22 10 12 1026.3 1026.1 0.0
24/12:30am 1.1 -4.5 -3.0 74 1.6 WNW 17 22 9 12 1026.4 1026.2 0.0
24/12:00am 1.3 -3.8 -1.8 80 1.2 WNW 15 20 8 11 1026.7 1026.4 0.0
 
Date/Time
EST
Temp
°C
App
Temp
°C
Dew
Point
°C
Rel
Hum
%
Delta-T
°C
Wind Press
QNH
hPa
Press
MSL
hPa
Rain since
9am
mm
Dir  Spd
km/h
Gust
km/h
Spd
kts
Gust
kts
23/11:30pm 1.5 -3.5 -1.4 81 1.2 NW 15 19 8 10 1026.5 1026.3 0.0
23/11:00pm 2.0 -2.6 -0.9 81 1.2 WNW 13 17 7 9 1026.8 1026.6 0.0
23/10:30pm 2.0 -2.6 -1.1 80 1.3 WNW 13 15 7 8 1027.0 1026.8 0.0
23/10:00pm 2.4 -2.1 0.0 84 1.0 NW 13 15 7 8 1027.0 1026.8 0.0
23/09:30pm 2.6 -2.0 -1.0 77 1.5 WNW 13 15 7 8 1027.1 1026.9 0.0
23/09:00pm 3.4 -0.2 -3.4 61 2.6 SE 6 7 3 4 1026.9 1026.7 0.0
23/08:30pm 3.1 0.2 1.3 88 0.8 SE 6 7 3 4 1027.0 1026.8 0.0
23/08:00pm 2.8 0.3 1.8 93 0.4 SE 4 6 2 3 1027.0 1026.8 0.0
23/07:30pm 2.0 0.2 1.3 95 0.3 CALM 0 0 0 0 1026.9 1026.7 0.0
23/07:00pm 1.5 -1.5 0.6 94 0.4 S 6 7 3 4 1026.8 1026.6 0.0
23/06:30pm 2.4 -0.5 1.5 94 0.4 W 6 6 3 3 1026.7 1026.4 0.0
23/06:00pm 2.8 1.1 1.9 94 0.4 CALM 0 0 0 0 1026.8 1026.6 0.0
23/05:30pm 3.0 0.9 2.0 93 0.4 WNW 2 4 1 2 1026.5 1026.3 0.0
23/05:00pm 3.7 2.0 1.7 87 0.9 CALM 0 0 0 0 1026.7 1026.4 0.0
23/04:30pm 5.0 3.0 2.2 82 1.3 WNW 2 6 1 3 1026.5 1026.3 0.0
23/04:00pm 4.9 2.1 2.1 82 1.3 WNW 6 9 3 5 1026.5 1026.3 0.0
23/03:30pm 5.3 2.3 2.1 80 1.4 WNW 7 9 4 5 1026.4 1026.2 0.0
23/03:00pm 6.6 3.8 2.1 73 2.0 W 6 11 3 6 1026.4 1026.2 0.0
23/02:30pm 6.3 3.2 1.4 71 2.2 WSW 7 13 4 7 1026.4 1026.2 0.0
23/02:00pm 7.0 3.6 1.9 70 2.3 NNW 9 15 5 8 1026.5 1026.3 0.0
23/01:30pm 7.0 3.2 1.5 68 2.5 N 11 20 6 11 1026.5 1026.3 0.0
23/01:00pm 6.9 3.5 -0.3 60 3.1 NW 7 15 4 8 1026.8 1026.6 0.0
23/12:30pm 7.8 4.4 -2.0 50 4.1 N 6 13 3 7 1027.0 1026.8 0.0
23/12:00pm 7.6 4.4 1.0 63 3.0 N 7 13 4 7 1027.2 1027.1 0.0
23/11:30am 7.4 3.8 -2.3 50 4.0 WNW 7 17 4 9 1027.6 1027.4 0.0
23/11:00am 6.8 2.5 -4.6 44 4.4 N 9 17 5 9 1027.8 1027.7 0.0
23/10:30am 6.3 2.3 -2.6 53 3.6 N 9 13 5 7 1027.7 1027.5 0.0
23/10:00am 5.5 1.5 -1.9 59 3.0 N 9 13 5 7 1027.7 1027.5 0.0
23/09:30am 6.2 2.3 -1.4 58 3.2 NNW 9 13 5 7 1027.6 1027.4 0.0
23/09:00am 5.6 1.9 -3.0 54 3.4 NW 7 9 4 5 1027.6 1027.4 0.0
23/08:30am 3.9 -0.3 -4.1 56 3.1 WNW 9 13 5 7 1027.4 1027.2 0.0
23/08:00am 3.0 -1.9 -3.1 64 2.4 WNW 13 17 7 9 1027.2 1027.1 0.0
23/07:30am 2.1 -3.2 -3.8 65 2.3 W 15 17 8 9 1027.1 1026.9 0.0
23/07:00am 2.2 -2.3 -3.5 66 2.2 W 11 13 6 7 1026.8 1026.6 0.0
23/06:30am 2.2 -2.1 -5.2 58 2.8 W 9 11 5 6 1026.7 1026.4 0.0
23/06:00am 2.1 -3.1 -6.0 55 3.0 W 13 17 7 9 1026.5 1026.3 0.0
23/05:30am 2.1 -3.3 -4.8 60 2.7 W 15 17 8 9 1026.3 1026.1 0.0
23/05:00am 2.3 -2.7 -4.0 63 2.5 W 13 15 7 8 1026.2 1025.9 0.0
23/04:30am 2.0 -3.1 -4.9 60 2.6 W 13 17 7 9 1026.2 1025.9 0.0
23/04:00am 2.6 -2.6 -6.0 53 3.2 WNW 13 17 7 9 1025.9 1025.7 0.0
23/03:30am 2.7 -2.4 -5.4 55 3.1 NW 13 15 7 8 1025.9 1025.7 0.0
23/03:00am 2.7 -1.0 -4.5 59 2.7 NW 6 11 3 6 1026.1 1025.8 0.0
23/02:30am 2.6 -1.9 -3.1 66 2.2 WNW 11 17 6 9 1026.3 1026.1 0.0
23/02:00am 2.7 -1.4 -3.2 65 2.3 NW 9 15 5 8 1026.3 1026.1 0.0
23/01:30am 3.4 -0.7 -3.2 62 2.6 WNW 9 15 5 8 1026.3 1026.1 0.0
23/01:00am 3.3 -1.6 -3.1 63 2.5 W 13 15 7 8 1026.3 1026.1 0.0
23/12:30am 3.9 0.2 -4.3 55 3.1 SE 6 6 3 3 1026.1 1025.8 0.0
23/12:00am 4.1 0.4 -4.6 53 3.3 SE 6 7 3 4 1026.4 1026.2 0.0
 
Date/Time
EST
Temp
°C
App
Temp
°C
Dew
Point
°C
Rel
Hum
%
Delta-T
°C
Wind Press
QNH
hPa
Press
MSL
hPa
Rain since
9am
mm
Dir  Spd
km/h
Gust
km/h
Spd
kts
Gust
kts
22/11:30pm 3.6 0.4 -3.9 58 2.9 SE 4 4 2 2 1026.4 1026.2 0.0
22/11:00pm 3.8 1.0 -3.7 58 2.9 SE 2 4 1 2 1026.7 1026.4 0.0
22/10:30pm 3.2 -0.1 -4.0 59 2.7 SE 4 6 2 3 1026.5 1026.3 0.0
22/10:00pm 2.9 -0.6 -2.6 67 2.1 S 6 6 3 3 1026.8 1026.6 0.0
22/09:30pm 2.6 -1.0 -2.3 70 1.9 S 7 7 4 4 1026.8 1026.6 0.0
22/09:00pm 2.8 -0.8 -2.1 70 1.9 S 7 7 4 4 1026.8 1026.6 0.0
22/08:30pm 2.0 -2.0 -2.1 74 1.6 SSE 9 13 5 7 1026.8 1026.6 0.0
22/08:00pm 1.8 -2.9 -2.0 76 1.5 SSE 13 13 7 7 1026.5 1026.3 0.0
22/07:30pm 2.3 -2.8 -2.0 73 1.7 SSE 15 15 8 8 1026.5 1026.3 0.0
22/07:00pm 1.9 -3.3 -2.6 72 1.7 SSE 15 17 8 9 1026.3 1026.1 0.0
22/06:30pm 1.6 -3.8 -1.5 80 1.2 SSE 17 19 9 10 1026.2 1025.9 0.0
22/06:00pm 2.1 -2.1 -1.0 80 1.3 SE 11 15 6 8 1026.1 1025.8 0.0
22/05:30pm 3.0 -0.1 1.5 90 0.7 N 7 9 4 5 1025.9 1025.7 0.0
22/05:00pm 4.1 1.5 1.1 81 1.3 N 4 6 2 3 1025.9 1025.7 0.0
22/04:30pm 5.6 4.0 2.3 79 1.5 CALM 0 4 0 2 1025.7 1025.4 0.0
22/04:00pm 5.2 2.8 2.4 82 1.3 N 4 7 2 4 1025.7 1025.4 0.0
22/03:30pm 5.3 2.4 2.5 82 1.3 N 7 11 4 6 1025.6 1025.3 0.0
22/03:00pm 6.1 3.2 2.4 77 1.7 N 7 11 4 6 1025.5 1025.2 0.0
22/02:30pm 6.7 4.0 2.6 75 1.9 NNW 6 9 3 5 1025.5 1025.2 0.0
22/02:00pm 7.5 4.6 2.4 70 2.4 NNW 7 17 4 9 1025.5 1025.2 0.0
22/01:30pm 7.7 4.5 -0.8 55 3.7 NNW 6 11 3 6 1025.6 1025.3 0.0
22/01:00pm 6.3 2.9 1.8 73 2.0 NNW 9 13 5 7 1025.8 1025.6 0.0
22/12:30pm 6.5 3.1 1.6 71 2.2 N 9 13 5 7 1026.3 1026.1 0.0
22/12:00pm 7.1 3.9 1.0 65 2.7 NE 7 11 4 6 1026.5 1026.3 0.0
22/11:30am 7.1 3.8 0.3 62 3.0 ENE 7 13 4 7 1026.9 1026.7 0.0
22/11:00am 7.0 3.4 -1.9 53 3.7 ESE 7 11 4 6 1027.0 1026.8 0.0
22/10:30am 7.4 4.4 -4.7 42 4.7 SE 2 7 1 4 1027.0 1026.8 0.0
22/10:00am 6.7 2.9 -9.6 30 5.6 SSE 4 7 2 4 1027.1 1026.9 0.0
22/09:30am 5.2 0.8 -12.7 26 5.9 S 6 9 3 5 1027.2 1027.1 0.0
22/09:00am 4.4 -1.1 -14.9 23 5.9 S 11 17 6 9 1027.1 1026.9 -
22/08:30am 3.7 -2.7 -18.4 18 6.1 SSW 15 19 8 10 1026.9 1026.7 -
22/08:00am 3.6 -1.8 -24.1 11 6.6 SSW 9 11 5 6 1026.5 1026.3 -
22/07:30am 3.4 -1.4 -22.4 13 6.4 S 6 7 3 4 1026.4 1026.2 -
22/07:00am 3.6 -1.4 -21.4 14 6.4 SSW 7 9 4 5 1026.2 1025.9 -
22/06:30am 3.7 -1.3 -21.3 14 6.4 S 7 11 4 6 1026.1 1025.8 -
22/06:00am 3.1 -1.7 -17.6 20 5.7 SSW 7 9 4 5 1025.9 1025.7 -
22/05:30am 2.4 -2.0 -12.6 32 4.7 W 6 6 3 3 1025.8 1025.6 -
22/05:00am 2.0 -1.3 -13.3 31 4.6 CALM 0 4 0 2 1025.8 1025.6 -
22/04:30am 1.0 -2.9 -4.2 68 2.0 W 7 9 4 5 1025.6 1025.3 -
22/04:00am 1.0 -2.9 -4.2 68 2.0 W 7 9 4 5 1025.7 1025.4 -
22/03:30am 0.9 -2.7 -3.9 70 1.8 W 6 7 3 4 1025.9 1025.7 -
22/03:00am 0.5 -3.0 -2.7 79 1.2 W 6 9 3 5 1026.1 1025.8 0.0
22/02:30am 0.9 -2.9 -3.6 72 1.7 W 7 11 4 6 1026.2 1025.9 -
22/02:00am 1.3 -2.4 -4.1 67 2.1 W 6 9 3 5 1026.3 1026.1 -
22/01:30am 1.4 -2.7 -3.3 71 1.9 W 9 11 5 6 1026.4 1026.2 -
22/01:00am 1.3 -2.8 -9.0 46 3.4 SSE 6 9 3 5 1026.4 1026.2 -
22/12:30am 3.0 -1.4 -21.8 14 6.2 SE 4 4 2 2 1026.7 1026.4 -
22/12:00am 2.3 -2.7 -23.2 13 6.0 SE 7 9 4 5 1026.8 1026.6 -
 
Date/Time
EST
Temp
°C
App
Temp
°C
Dew
Point
°C
Rel
Hum
%
Delta-T
°C
Wind Press
QNH
hPa
Press
MSL
hPa
Rain since
9am
mm
Dir  Spd
km/h
Gust
km/h
Spd
kts
Gust
kts
21/11:30pm 3.1 -2.0 -27.9 8 6.7 SE 7 9 4 5 1026.8 1026.6 -
21/11:00pm 2.2 -3.0 -18.4 20 5.5 SE 9 13 5 7 1027.0 1026.8 -
21/10:30pm 2.1 -3.0 -15.4 26 5.0 SSE 9 11 5 6 1027.1 1026.9 -
21/10:00pm 0.4 -5.3 -7.6 55 2.7 SSE 15 17 8 9 1027.1 1026.9 -
21/09:30pm -1.7 -7.0 -3.3 89 0.5 SSE 15 19 8 10 1027.1 1026.9 -
21/09:00pm 1.8 -2.5 -9.4 43 3.7 S 7 13 4 7 1027.1 1026.9 0.0
21/08:30pm 0.2 -2.9 0.1 99 0.0 S 6 7 3 4 1027.2 1027.1 -
21/08:00pm -0.7 -3.9 -0.8 99 0.0 S 6 7 3 4 1027.4 1027.2 -
21/07:30pm -0.6 -3.8 -0.7 99 0.0 S 6 7 3 4 1027.6 1027.4 -
21/07:00pm -0.5 -4.3 -0.6 99 0.0 S 9 11 5 6 1027.5 1027.3 -
21/06:30pm 0.2 -4.2 0.1 99 0.0 S 13 17 7 9 1027.4 1027.2 -
21/06:00pm 0.6 -3.0 0.5 99 0.0 SSE 9 13 5 7 1027.1 1026.9 -
21/05:30pm 0.5 -3.1 0.4 99 0.0 SSE 9 13 5 7 1027.0 1026.8 -
21/05:00pm 1.1 -3.2 0.7 97 0.2 SE 13 15 7 8 1026.9 1026.7 -
21/04:30pm 2.1 -1.1 0.5 89 0.7 N 7 11 4 6 1027.0 1026.8 -
21/04:00pm 5.5 2.6 1.2 74 1.9 N 6 7 3 4 1026.9 1026.7 -
21/03:30pm 5.5 2.4 1.2 74 1.9 N 7 11 4 6 1026.9 1026.7 -
21/03:00pm 6.5 3.6 1.6 71 2.2 NW 6 15 3 8 1026.8 1026.6 -
21/02:30pm 6.4 2.9 1.5 71 2.2 NW 9 13 5 7 1026.9 1026.7 -
21/02:00pm 5.8 2.3 1.0 71 2.1 NNW 9 17 5 9 1027.0 1026.8 -
21/01:30pm 5.7 1.8 1.2 73 2.0 N 11 17 6 9 1027.0 1026.8 -
21/01:00pm 5.4 1.4 0.4 70 2.2 N 11 19 6 10 1027.2 1027.1 -
21/12:30pm 5.0 0.9 -0.2 69 2.2 N 11 19 6 10 1027.5 1027.3 -
21/12:00pm 5.4 0.9 -0.4 66 2.5 N 13 19 7 10 1027.6 1027.4 0.0
21/11:30am 4.9 1.4 -1.3 64 2.6 N 7 15 4 8 1027.8 1027.7 0.0
21/11:00am 4.8 0.6 -0.8 67 2.3 N 11 17 6 9 1028.0 1027.8 0.0
21/10:30am 4.4 -0.2 -1.4 66 2.4 N 13 19 7 10 1028.0 1027.8 0.0

Other formats

Comma delimited format used in spreadsheet applications
http://www.bom.gov.au/fwo/IDV60801/IDV60801.94903.axf

JavaScript Object Notation format (JSON) in row-major order
http://www.bom.gov.au/fwo/IDV60801/IDV60801.94903.json

Data quality

Most of these data are generated automatically and are frequently updated. Quality checks on data are not normally performed. It is possible for incorrect values to appear. Refer to information at About Latest Weather Observations and please check the disclaimer before using these data.